sensor_id;sensor_type;location;lat;lon;timestamp;P1;durP1;ratioP1;P2;durP2;ratioP2
20478;SDS011;10398;52.490;13.434;2023-07-31T00:01:50;1.70;;;0.80;;
20478;SDS011;10398;52.490;13.434;2023-07-31T00:04:16;3.57;;;1.03;;
20478;SDS011;10398;52.490;13.434;2023-07-31T00:06:41;3.30;;;0.90;;
20478;SDS011;10398;52.490;13.434;2023-07-31T00:09:07;2.90;;;0.90;;
20478;SDS011;10398;52.490;13.434;2023-07-31T00:11:32;2.53;;;0.60;;
20478;SDS011;10398;52.490;13.434;2023-07-31T00:13:58;2.07;;;0.60;;
20478;SDS011;10398;52.490;13.434;2023-07-31T00:16:24;3.00;;;0.88;;
20478;SDS011;10398;52.490;13.434;2023-07-31T00:18:49;2.43;;;0.80;;
20478;SDS011;10398;52.490;13.434;2023-07-31T00:21:15;5.13;;;0.80;;
20478;SDS011;10398;52.490;13.434;2023-07-31T00:23:41;4.33;;;0.73;;
20478;SDS011;10398;52.490;13.434;2023-07-31T00:26:06;3.47;;;0.73;;
20478;SDS011;10398;52.490;13.434;2023-07-31T00:28:32;3.60;;;1.07;;
20478;SDS011;10398;52.490;13.434;2023-07-31T00:30:57;5.53;;;0.95;;
20478;SDS011;10398;52.490;13.434;2023-07-31T00:33:23;3.13;;;0.97;;
20478;SDS011;10398;52.490;13.434;2023-07-31T00:35:49;2.87;;;1.00;;
20478;SDS011;10398;52.490;13.434;2023-07-31T00:38:14;3.40;;;0.90;;
20478;SDS011;10398;52.490;13.434;2023-07-31T00:40:40;3.53;;;1.00;;
20478;SDS011;10398;52.490;13.434;2023-07-31T00:43:05;4.00;;;1.10;;
20478;SDS011;10398;52.490;13.434;2023-07-31T00:45:31;1.80;;;0.77;;
20478;SDS011;10398;52.490;13.434;2023-07-31T00:47:58;3.37;;;1.20;;
20478;SDS011;10398;52.490;13.434;2023-07-31T00:50:24;2.80;;;1.37;;
20478;SDS011;10398;52.490;13.434;2023-07-31T00:52:50;3.33;;;1.20;;
20478;SDS011;10398;52.490;13.434;2023-07-31T00:55:16;4.13;;;1.10;;
20478;SDS011;10398;52.490;13.434;2023-07-31T00:57:42;10.03;;;2.17;;
20478;SDS011;10398;52.490;13.434;2023-07-31T01:00:10;11.13;;;3.37;;
20478;SDS011;10398;52.490;13.434;2023-07-31T01:02:37;7.57;;;1.63;;
20478;SDS011;10398;52.490;13.434;2023-07-31T01:05:03;3.07;;;0.90;;
20478;SDS011;10398;52.490;13.434;2023-07-31T01:07:39;2.80;;;0.93;;
20478;SDS011;10398;52.490;13.434;2023-07-31T01:10:23;5.50;;;1.00;;
20478;SDS011;10398;52.490;13.434;2023-07-31T01:12:55;6.37;;;1.07;;
20478;SDS011;10398;52.490;13.434;2023-07-31T01:15:22;1.53;;;1.00;;
20478;SDS011;10398;52.490;13.434;2023-07-31T01:17:48;6.90;;;1.17;;
20478;SDS011;10398;52.490;13.434;2023-07-31T01:20:17;3.73;;;1.00;;
20478;SDS011;10398;52.490;13.434;2023-07-31T01:28:05;4.83;;;0.90;;
20478;SDS011;10398;52.490;13.434;2023-07-31T01:30:36;4.53;;;1.07;;
20478;SDS011;10398;52.490;13.434;2023-07-31T01:33:06;3.40;;;0.83;;
20478;SDS011;10398;52.490;13.434;2023-07-31T01:35:33;5.47;;;1.33;;
20478;SDS011;10398;52.490;13.434;2023-07-31T01:38:00;4.73;;;0.90;;
20478;SDS011;10398;52.490;13.434;2023-07-31T01:40:26;2.13;;;1.03;;
20478;SDS011;10398;52.490;13.434;2023-07-31T01:42:51;2.10;;;0.93;;
20478;SDS011;10398;52.490;13.434;2023-07-31T01:45:17;1.63;;;0.93;;
20478;SDS011;10398;52.490;13.434;2023-07-31T01:47:43;8.00;;;2.77;;
20478;SDS011;10398;52.490;13.434;2023-07-31T01:50:08;5.10;;;1.27;;
20478;SDS011;10398;52.490;13.434;2023-07-31T01:52:34;2.13;;;1.20;;
20478;SDS011;10398;52.490;13.434;2023-07-31T01:55:00;5.73;;;1.50;;
20478;SDS011;10398;52.490;13.434;2023-07-31T01:57:26;6.20;;;1.60;;
20478;SDS011;10398;52.490;13.434;2023-07-31T01:59:51;4.93;;;1.50;;
20478;SDS011;10398;52.490;13.434;2023-07-31T02:02:18;2.30;;;1.23;;
20478;SDS011;10398;52.490;13.434;2023-07-31T02:04:48;5.83;;;1.50;;
20478;SDS011;10398;52.490;13.434;2023-07-31T02:07:13;9.23;;;2.17;;
20478;SDS011;10398;52.490;13.434;2023-07-31T02:09:39;5.10;;;1.17;;
20478;SDS011;10398;52.490;13.434;2023-07-31T02:12:05;2.37;;;1.20;;
20478;SDS011;10398;52.490;13.434;2023-07-31T02:14:33;5.57;;;1.37;;
20478;SDS011;10398;52.490;13.434;2023-07-31T02:16:59;5.47;;;1.40;;
20478;SDS011;10398;52.490;13.434;2023-07-31T02:19:25;2.37;;;1.40;;
20478;SDS011;10398;52.490;13.434;2023-07-31T02:21:50;3.17;;;1.40;;
20478;SDS011;10398;52.490;13.434;2023-07-31T02:24:16;2.73;;;1.20;;
20478;SDS011;10398;52.490;13.434;2023-07-31T02:26:42;1.67;;;1.03;;
20478;SDS011;10398;52.490;13.434;2023-07-31T02:29:08;3.27;;;1.33;;
20478;SDS011;10398;52.490;13.434;2023-07-31T02:31:34;4.83;;;1.77;;
20478;SDS011;10398;52.490;13.434;2023-07-31T02:33:59;4.87;;;1.40;;
20478;SDS011;10398;52.490;13.434;2023-07-31T02:36:25;5.03;;;1.60;;
20478;SDS011;10398;52.490;13.434;2023-07-31T02:38:50;3.47;;;0.90;;
20478;SDS011;10398;52.490;13.434;2023-07-31T02:41:16;3.00;;;1.17;;
20478;SDS011;10398;52.490;13.434;2023-07-31T02:43:42;3.13;;;1.13;;
20478;SDS011;10398;52.490;13.434;2023-07-31T02:46:08;3.33;;;1.30;;
20478;SDS011;10398;52.490;13.434;2023-07-31T02:48:34;4.33;;;1.50;;
20478;SDS011;10398;52.490;13.434;2023-07-31T02:51:00;3.30;;;1.20;;
20478;SDS011;10398;52.490;13.434;2023-07-31T02:53:25;2.93;;;1.23;;
20478;SDS011;10398;52.490;13.434;2023-07-31T02:55:51;4.63;;;1.23;;
20478;SDS011;10398;52.490;13.434;2023-07-31T02:58:17;8.13;;;3.17;;
20478;SDS011;10398;52.490;13.434;2023-07-31T03:00:43;5.17;;;2.70;;
20478;SDS011;10398;52.490;13.434;2023-07-31T03:03:09;2.07;;;1.30;;
20478;SDS011;10398;52.490;13.434;2023-07-31T03:05:35;4.77;;;1.60;;
20478;SDS011;10398;52.490;13.434;2023-07-31T03:08:01;4.73;;;2.13;;
20478;SDS011;10398;52.490;13.434;2023-07-31T03:10:26;4.90;;;1.90;;
20478;SDS011;10398;52.490;13.434;2023-07-31T03:12:52;3.63;;;1.50;;
20478;SDS011;10398;52.490;13.434;2023-07-31T03:15:18;3.33;;;1.50;;
20478;SDS011;10398;52.490;13.434;2023-07-31T03:17:43;4.23;;;1.90;;
20478;SDS011;10398;52.490;13.434;2023-07-31T03:20:09;4.57;;;1.80;;
20478;SDS011;10398;52.490;13.434;2023-07-31T03:22:35;6.13;;;3.23;;
20478;SDS011;10398;52.490;13.434;2023-07-31T03:25:02;7.03;;;2.50;;
20478;SDS011;10398;52.490;13.434;2023-07-31T03:27:28;10.27;;;1.97;;
20478;SDS011;10398;52.490;13.434;2023-07-31T03:29:53;3.93;;;1.70;;
20478;SDS011;10398;52.490;13.434;2023-07-31T03:32:19;6.30;;;2.10;;
20478;SDS011;10398;52.490;13.434;2023-07-31T03:34:44;3.70;;;1.60;;
20478;SDS011;10398;52.490;13.434;2023-07-31T03:37:10;7.17;;;1.80;;
20478;SDS011;10398;52.490;13.434;2023-07-31T03:39:36;5.97;;;1.97;;
20478;SDS011;10398;52.490;13.434;2023-07-31T03:42:01;3.97;;;2.03;;
20478;SDS011;10398;52.490;13.434;2023-07-31T03:44:27;7.53;;;1.87;;
20478;SDS011;10398;52.490;13.434;2023-07-31T03:46:53;4.87;;;2.30;;
20478;SDS011;10398;52.490;13.434;2023-07-31T03:49:18;7.63;;;2.07;;
20478;SDS011;10398;52.490;13.434;2023-07-31T03:51:44;4.93;;;2.00;;
20478;SDS011;10398;52.490;13.434;2023-07-31T03:54:09;4.20;;;1.70;;
20478;SDS011;10398;52.490;13.434;2023-07-31T03:56:35;3.47;;;1.77;;
20478;SDS011;10398;52.490;13.434;2023-07-31T03:59:02;3.63;;;2.13;;
20478;SDS011;10398;52.490;13.434;2023-07-31T04:01:28;5.80;;;2.10;;
20478;SDS011;10398;52.490;13.434;2023-07-31T04:03:54;6.37;;;2.50;;
20478;SDS011;10398;52.490;13.434;2023-07-31T04:06:19;5.13;;;2.20;;
20478;SDS011;10398;52.490;13.434;2023-07-31T04:08:45;5.30;;;2.07;;
20478;SDS011;10398;52.490;13.434;2023-07-31T04:11:11;4.87;;;1.93;;
20478;SDS011;10398;52.490;13.434;2023-07-31T04:13:37;3.40;;;2.10;;
20478;SDS011;10398;52.490;13.434;2023-07-31T04:16:03;7.03;;;2.17;;
20478;SDS011;10398;52.490;13.434;2023-07-31T04:18:29;3.50;;;2.00;;
20478;SDS011;10398;52.490;13.434;2023-07-31T04:20:56;7.07;;;2.20;;
20478;SDS011;10398;52.490;13.434;2023-07-31T04:23:23;3.47;;;1.60;;
20478;SDS011;10398;52.490;13.434;2023-07-31T04:25:49;5.77;;;1.90;;
20478;SDS011;10398;52.490;13.434;2023-07-31T04:28:15;5.83;;;2.23;;
20478;SDS011;10398;52.490;13.434;2023-07-31T04:30:41;8.83;;;2.07;;
20478;SDS011;10398;52.490;13.434;2023-07-31T04:33:06;6.73;;;2.23;;
20478;SDS011;10398;52.490;13.434;2023-07-31T04:35:32;4.43;;;2.10;;
20478;SDS011;10398;52.490;13.434;2023-07-31T04:37:57;2.93;;;1.80;;
20478;SDS011;10398;52.490;13.434;2023-07-31T04:40:23;7.17;;;2.00;;
20478;SDS011;10398;52.490;13.434;2023-07-31T04:42:48;5.87;;;2.50;;
20478;SDS011;10398;52.490;13.434;2023-07-31T04:45:14;6.87;;;1.67;;
20478;SDS011;10398;52.490;13.434;2023-07-31T04:47:40;6.67;;;1.73;;
20478;SDS011;10398;52.490;13.434;2023-07-31T04:50:06;3.83;;;1.40;;
20478;SDS011;10398;52.490;13.434;2023-07-31T04:52:32;6.87;;;1.90;;
20478;SDS011;10398;52.490;13.434;2023-07-31T04:54:57;6.37;;;1.77;;
20478;SDS011;10398;52.490;13.434;2023-07-31T04:57:23;8.50;;;2.20;;
20478;SDS011;10398;52.490;13.434;2023-07-31T04:59:48;5.10;;;1.77;;
20478;SDS011;10398;52.490;13.434;2023-07-31T05:02:14;5.33;;;2.03;;
20478;SDS011;10398;52.490;13.434;2023-07-31T05:04:40;3.40;;;1.80;;
20478;SDS011;10398;52.490;13.434;2023-07-31T05:07:06;2.73;;;1.47;;
20478;SDS011;10398;52.490;13.434;2023-07-31T05:09:31;6.13;;;2.23;;
20478;SDS011;10398;52.490;13.434;2023-07-31T05:11:57;4.53;;;1.90;;
20478;SDS011;10398;52.490;13.434;2023-07-31T05:14:22;3.57;;;1.63;;
20478;SDS011;10398;52.490;13.434;2023-07-31T05:16:48;3.67;;;1.85;;
20478;SDS011;10398;52.490;13.434;2023-07-31T05:19:14;5.53;;;2.10;;
20478;SDS011;10398;52.490;13.434;2023-07-31T05:21:39;5.63;;;1.97;;
20478;SDS011;10398;52.490;13.434;2023-07-31T05:24:05;5.80;;;1.83;;
20478;SDS011;10398;52.490;13.434;2023-07-31T05:26:31;8.37;;;1.60;;
20478;SDS011;10398;52.490;13.434;2023-07-31T05:28:56;6.97;;;1.50;;
20478;SDS011;10398;52.490;13.434;2023-07-31T05:31:23;9.20;;;2.20;;
20478;SDS011;10398;52.490;13.434;2023-07-31T05:33:49;5.30;;;1.63;;
20478;SDS011;10398;52.490;13.434;2023-07-31T05:36:15;4.17;;;1.60;;
20478;SDS011;10398;52.490;13.434;2023-07-31T05:38:42;3.80;;;1.40;;
20478;SDS011;10398;52.490;13.434;2023-07-31T05:41:09;4.10;;;1.70;;
20478;SDS011;10398;52.490;13.434;2023-07-31T05:43:36;5.00;;;1.70;;
20478;SDS011;10398;52.490;13.434;2023-07-31T05:46:01;3.78;;;1.55;;
20478;SDS011;10398;52.490;13.434;2023-07-31T05:48:27;8.07;;;2.00;;
20478;SDS011;10398;52.490;13.434;2023-07-31T05:50:52;5.77;;;2.27;;
20478;SDS011;10398;52.490;13.434;2023-07-31T05:53:18;6.03;;;1.50;;
20478;SDS011;10398;52.490;13.434;2023-07-31T05:55:44;12.68;;;3.25;;
20478;SDS011;10398;52.490;13.434;2023-07-31T05:58:09;3.50;;;1.50;;
20478;SDS011;10398;52.490;13.434;2023-07-31T06:00:35;2.57;;;1.50;;
20478;SDS011;10398;52.490;13.434;2023-07-31T06:03:01;3.97;;;2.33;;
20478;SDS011;10398;52.490;13.434;2023-07-31T06:05:27;2.60;;;1.60;;
20478;SDS011;10398;52.490;13.434;2023-07-31T06:07:54;4.23;;;1.90;;
20478;SDS011;10398;52.490;13.434;2023-07-31T06:10:20;5.60;;;1.80;;
20478;SDS011;10398;52.490;13.434;2023-07-31T06:12:46;13.57;;;2.00;;
20478;SDS011;10398;52.490;13.434;2023-07-31T06:15:12;7.43;;;1.40;;
20478;SDS011;10398;52.490;13.434;2023-07-31T06:17:37;4.93;;;1.43;;
20478;SDS011;10398;52.490;13.434;2023-07-31T06:20:03;3.17;;;1.37;;
20478;SDS011;10398;52.490;13.434;2023-07-31T06:22:30;3.03;;;2.03;;
20478;SDS011;10398;52.490;13.434;2023-07-31T06:24:56;3.73;;;1.43;;
20478;SDS011;10398;52.490;13.434;2023-07-31T06:27:23;4.53;;;1.70;;
20478;SDS011;10398;52.490;13.434;2023-07-31T06:29:48;3.00;;;1.40;;
20478;SDS011;10398;52.490;13.434;2023-07-31T06:32:14;4.83;;;1.70;;
20478;SDS011;10398;52.490;13.434;2023-07-31T06:34:40;4.67;;;1.50;;
20478;SDS011;10398;52.490;13.434;2023-07-31T06:37:05;5.53;;;1.80;;
20478;SDS011;10398;52.490;13.434;2023-07-31T06:39:31;7.97;;;1.97;;
20478;SDS011;10398;52.490;13.434;2023-07-31T06:41:56;4.65;;;1.65;;
20478;SDS011;10398;52.490;13.434;2023-07-31T06:44:22;7.20;;;1.60;;
20478;SDS011;10398;52.490;13.434;2023-07-31T06:46:48;4.10;;;1.30;;
20478;SDS011;10398;52.490;13.434;2023-07-31T06:49:14;5.60;;;1.48;;
20478;SDS011;10398;52.490;13.434;2023-07-31T06:51:42;4.10;;;1.30;;
20478;SDS011;10398;52.490;13.434;2023-07-31T06:54:09;5.83;;;1.70;;
20478;SDS011;10398;52.490;13.434;2023-07-31T06:56:34;3.88;;;1.33;;
20478;SDS011;10398;52.490;13.434;2023-07-31T06:59:00;4.67;;;1.40;;
20478;SDS011;10398;52.490;13.434;2023-07-31T07:01:26;3.60;;;1.63;;
20478;SDS011;10398;52.490;13.434;2023-07-31T07:03:53;3.83;;;1.80;;
20478;SDS011;10398;52.490;13.434;2023-07-31T07:06:19;6.73;;;2.30;;
20478;SDS011;10398;52.490;13.434;2023-07-31T07:08:45;4.70;;;2.00;;
20478;SDS011;10398;52.490;13.434;2023-07-31T07:11:10;5.60;;;1.43;;
20478;SDS011;10398;52.490;13.434;2023-07-31T07:13:36;6.90;;;2.63;;
20478;SDS011;10398;52.490;13.434;2023-07-31T07:16:02;5.67;;;2.03;;
20478;SDS011;10398;52.490;13.434;2023-07-31T07:18:27;4.97;;;1.63;;
20478;SDS011;10398;52.490;13.434;2023-07-31T07:20:53;7.33;;;2.57;;
20478;SDS011;10398;52.490;13.434;2023-07-31T07:23:22;7.43;;;2.10;;
20478;SDS011;10398;52.490;13.434;2023-07-31T07:25:47;3.97;;;1.40;;
20478;SDS011;10398;52.490;13.434;2023-07-31T07:28:14;4.37;;;1.47;;
20478;SDS011;10398;52.490;13.434;2023-07-31T07:30:40;7.07;;;2.87;;
20478;SDS011;10398;52.490;13.434;2023-07-31T07:33:06;5.30;;;1.70;;
20478;SDS011;10398;52.490;13.434;2023-07-31T07:35:35;7.80;;;2.70;;
20478;SDS011;10398;52.490;13.434;2023-07-31T07:38:04;12.80;;;5.07;;
20478;SDS011;10398;52.490;13.434;2023-07-31T07:40:29;6.73;;;2.80;;
20478;SDS011;10398;52.490;13.434;2023-07-31T07:42:55;4.30;;;2.10;;
20478;SDS011;10398;52.490;13.434;2023-07-31T07:45:21;16.33;;;1.95;;
20478;SDS011;10398;52.490;13.434;2023-07-31T07:47:46;7.28;;;2.38;;
20478;SDS011;10398;52.490;13.434;2023-07-31T07:50:12;5.80;;;2.33;;
20478;SDS011;10398;52.490;13.434;2023-07-31T07:52:38;6.25;;;2.22;;
20478;SDS011;10398;52.490;13.434;2023-07-31T07:55:03;5.05;;;2.10;;
20478;SDS011;10398;52.490;13.434;2023-07-31T07:57:29;3.90;;;1.50;;
20478;SDS011;10398;52.490;13.434;2023-07-31T07:59:55;6.55;;;1.48;;
20478;SDS011;10398;52.490;13.434;2023-07-31T08:02:21;5.80;;;1.33;;
20478;SDS011;10398;52.490;13.434;2023-07-31T08:04:47;2.35;;;1.35;;
20478;SDS011;10398;52.490;13.434;2023-07-31T08:07:13;3.20;;;1.30;;
20478;SDS011;10398;52.490;13.434;2023-07-31T08:09:39;3.33;;;1.40;;
20478;SDS011;10398;52.490;13.434;2023-07-31T08:12:06;3.63;;;1.13;;
20478;SDS011;10398;52.490;13.434;2023-07-31T08:14:32;3.42;;;1.45;;
20478;SDS011;10398;52.490;13.434;2023-07-31T08:16:57;2.55;;;1.20;;
20478;SDS011;10398;52.490;13.434;2023-07-31T08:19:23;2.03;;;0.90;;
20478;SDS011;10398;52.490;13.434;2023-07-31T08:21:49;2.67;;;0.90;;
20478;SDS011;10398;52.490;13.434;2023-07-31T08:24:14;1.90;;;0.88;;
20478;SDS011;10398;52.490;13.434;2023-07-31T08:26:40;2.17;;;1.37;;
20478;SDS011;10398;52.490;13.434;2023-07-31T08:29:05;4.90;;;1.13;;
20478;SDS011;10398;52.490;13.434;2023-07-31T08:31:31;2.75;;;1.35;;
20478;SDS011;10398;52.490;13.434;2023-07-31T08:33:57;2.22;;;1.13;;
20478;SDS011;10398;52.490;13.434;2023-07-31T08:36:22;2.05;;;1.27;;
20478;SDS011;10398;52.490;13.434;2023-07-31T08:38:48;2.95;;;1.40;;
20478;SDS011;10398;52.490;13.434;2023-07-31T08:41:15;3.67;;;1.30;;
20478;SDS011;10398;52.490;13.434;2023-07-31T08:43:42;2.47;;;1.20;;
20478;SDS011;10398;52.490;13.434;2023-07-31T08:46:10;2.97;;;1.17;;
20478;SDS011;10398;52.490;13.434;2023-07-31T08:48:36;2.53;;;1.38;;
20478;SDS011;10398;52.490;13.434;2023-07-31T08:51:05;2.58;;;1.20;;
20478;SDS011;10398;52.490;13.434;2023-07-31T08:53:32;4.57;;;1.55;;
20478;SDS011;10398;52.490;13.434;2023-07-31T08:55:58;3.50;;;1.27;;
20478;SDS011;10398;52.490;13.434;2023-07-31T08:58:24;2.53;;;1.50;;
20478;SDS011;10398;52.490;13.434;2023-07-31T09:00:52;3.03;;;1.13;;
20478;SDS011;10398;52.490;13.434;2023-07-31T09:03:21;3.67;;;1.35;;
20478;SDS011;10398;52.490;13.434;2023-07-31T09:05:50;3.53;;;1.63;;
20478;SDS011;10398;52.490;13.434;2023-07-31T09:08:17;5.93;;;2.60;;
20478;SDS011;10398;52.490;13.434;2023-07-31T09:10:45;8.88;;;3.00;;
20478;SDS011;10398;52.490;13.434;2023-07-31T09:13:14;6.80;;;2.53;;
20478;SDS011;10398;52.490;13.434;2023-07-31T09:15:41;6.75;;;2.30;;
20478;SDS011;10398;52.490;13.434;2023-07-31T09:18:10;5.60;;;2.40;;
20478;SDS011;10398;52.490;13.434;2023-07-31T09:20:36;5.38;;;1.95;;
20478;SDS011;10398;52.490;13.434;2023-07-31T09:23:06;4.50;;;1.70;;
20478;SDS011;10398;52.490;13.434;2023-07-31T09:25:33;3.00;;;1.23;;
20478;SDS011;10398;52.490;13.434;2023-07-31T09:28:03;1.77;;;1.13;;
20478;SDS011;10398;52.490;13.434;2023-07-31T09:33:14;1.08;;;0.70;;
20478;SDS011;10398;52.490;13.434;2023-07-31T09:35:40;2.25;;;0.80;;
20478;SDS011;10398;52.490;13.434;2023-07-31T09:38:07;1.48;;;0.80;;
20478;SDS011;10398;52.490;13.434;2023-07-31T09:40:39;2.42;;;0.85;;
20478;SDS011;10398;52.490;13.434;2023-07-31T09:43:07;3.00;;;1.02;;
20478;SDS011;10398;52.490;13.434;2023-07-31T09:45:36;1.90;;;0.80;;
20478;SDS011;10398;52.490;13.434;2023-07-31T09:48:02;2.67;;;0.73;;
20478;SDS011;10398;52.490;13.434;2023-07-31T09:50:31;0.77;;;0.60;;
20478;SDS011;10398;52.490;13.434;2023-07-31T09:52:57;1.17;;;0.52;;
20478;SDS011;10398;52.490;13.434;2023-07-31T09:55:23;2.20;;;0.80;;
20478;SDS011;10398;52.490;13.434;2023-07-31T09:57:49;2.10;;;0.82;;
20478;SDS011;10398;52.490;13.434;2023-07-31T10:00:16;4.90;;;0.77;;
20478;SDS011;10398;52.490;13.434;2023-07-31T10:02:45;4.00;;;1.17;;
20478;SDS011;10398;52.490;13.434;2023-07-31T10:05:12;1.48;;;1.15;;
20478;SDS011;10398;52.490;13.434;2023-07-31T10:07:40;2.65;;;1.40;;
20478;SDS011;10398;52.490;13.434;2023-07-31T10:10:10;3.78;;;1.65;;
20478;SDS011;10398;52.490;13.434;2023-07-31T10:12:36;3.22;;;1.40;;
20478;SDS011;10398;52.490;13.434;2023-07-31T10:15:03;6.57;;;1.90;;
20478;SDS011;10398;52.490;13.434;2023-07-31T10:17:30;5.70;;;1.67;;
20478;SDS011;10398;52.490;13.434;2023-07-31T10:19:57;5.83;;;2.23;;
20478;SDS011;10398;52.490;13.434;2023-07-31T10:22:28;6.60;;;2.38;;
20478;SDS011;10398;52.490;13.434;2023-07-31T10:24:54;3.35;;;1.92;;
20478;SDS011;10398;52.490;13.434;2023-07-31T10:27:23;5.00;;;2.03;;
20478;SDS011;10398;52.490;13.434;2023-07-31T10:29:52;3.38;;;1.90;;
20478;SDS011;10398;52.490;13.434;2023-07-31T10:32:20;14.77;;;2.55;;
20478;SDS011;10398;52.490;13.434;2023-07-31T10:34:47;9.00;;;2.35;;
20478;SDS011;10398;52.490;13.434;2023-07-31T10:39:56;6.00;;;2.10;;
20478;SDS011;10398;52.490;13.434;2023-07-31T10:45:03;7.25;;;2.40;;
20478;SDS011;10398;52.490;13.434;2023-07-31T10:47:38;7.80;;;2.17;;
20478;SDS011;10398;52.490;13.434;2023-07-31T10:50:18;4.90;;;2.40;;
20478;SDS011;10398;52.490;13.434;2023-07-31T10:52:48;4.93;;;2.10;;
20478;SDS011;10398;52.490;13.434;2023-07-31T10:55:15;6.18;;;2.60;;
20478;SDS011;10398;52.490;13.434;2023-07-31T10:58:07;6.68;;;2.00;;
20478;SDS011;10398;52.490;13.434;2023-07-31T11:00:33;5.05;;;2.08;;
20478;SDS011;10398;52.490;13.434;2023-07-31T11:03:09;4.75;;;2.25;;
20478;SDS011;10398;52.490;13.434;2023-07-31T11:08:30;5.28;;;2.17;;
20478;SDS011;10398;52.490;13.434;2023-07-31T11:13:33;6.07;;;2.35;;
20478;SDS011;10398;52.490;13.434;2023-07-31T11:16:04;11.88;;;2.72;;
20478;SDS011;10398;52.490;13.434;2023-07-31T11:18:30;5.47;;;2.42;;
20478;SDS011;10398;52.490;13.434;2023-07-31T11:20:55;4.75;;;2.28;;
20478;SDS011;10398;52.490;13.434;2023-07-31T11:23:22;6.80;;;1.95;;
20478;SDS011;10398;52.490;13.434;2023-07-31T11:25:48;5.03;;;1.92;;
20478;SDS011;10398;52.490;13.434;2023-07-31T11:28:16;4.50;;;1.90;;
20478;SDS011;10398;52.490;13.434;2023-07-31T11:30:44;5.05;;;1.65;;
20478;SDS011;10398;52.490;13.434;2023-07-31T11:33:11;17.10;;;5.28;;
20478;SDS011;10398;52.490;13.434;2023-07-31T11:35:42;10.45;;;2.88;;
20478;SDS011;10398;52.490;13.434;2023-07-31T11:38:22;4.43;;;1.85;;
20478;SDS011;10398;52.490;13.434;2023-07-31T11:40:51;5.43;;;2.28;;
20478;SDS011;10398;52.490;13.434;2023-07-31T11:43:21;6.95;;;2.05;;
20478;SDS011;10398;52.490;13.434;2023-07-31T11:45:49;7.57;;;3.20;;
20478;SDS011;10398;52.490;13.434;2023-07-31T11:50:52;3.90;;;1.70;;
20478;SDS011;10398;52.490;13.434;2023-07-31T11:53:29;5.30;;;1.80;;
20478;SDS011;10398;52.490;13.434;2023-07-31T11:56:00;11.10;;;2.25;;
20478;SDS011;10398;52.490;13.434;2023-07-31T11:58:29;6.22;;;2.25;;
20478;SDS011;10398;52.490;13.434;2023-07-31T12:00:56;4.68;;;1.90;;
20478;SDS011;10398;52.490;13.434;2023-07-31T12:03:23;6.05;;;2.30;;
20478;SDS011;10398;52.490;13.434;2023-07-31T12:05:49;5.72;;;2.53;;
20478;SDS011;10398;52.490;13.434;2023-07-31T12:08:14;8.90;;;3.72;;
20478;SDS011;10398;52.490;13.434;2023-07-31T12:10:41;11.07;;;2.83;;
20478;SDS011;10398;52.490;13.434;2023-07-31T12:13:10;7.35;;;2.13;;
20478;SDS011;10398;52.490;13.434;2023-07-31T12:15:44;4.53;;;2.20;;
20478;SDS011;10398;52.490;13.434;2023-07-31T12:18:11;4.40;;;2.45;;
20478;SDS011;10398;52.490;13.434;2023-07-31T12:20:44;6.65;;;2.05;;
20478;SDS011;10398;52.490;13.434;2023-07-31T12:23:19;5.97;;;2.15;;
20478;SDS011;10398;52.490;13.434;2023-07-31T12:28:44;6.20;;;1.65;;
20478;SDS011;10398;52.490;13.434;2023-07-31T12:31:16;5.70;;;1.70;;
20478;SDS011;10398;52.490;13.434;2023-07-31T12:33:44;8.77;;;1.75;;
20478;SDS011;10398;52.490;13.434;2023-07-31T12:36:11;5.22;;;1.92;;
20478;SDS011;10398;52.490;13.434;2023-07-31T12:38:38;6.43;;;2.10;;
20478;SDS011;10398;52.490;13.434;2023-07-31T12:41:04;8.77;;;1.80;;
20478;SDS011;10398;52.490;13.434;2023-07-31T12:43:31;9.02;;;1.92;;
20478;SDS011;10398;52.490;13.434;2023-07-31T12:45:58;7.05;;;2.63;;
20478;SDS011;10398;52.490;13.434;2023-07-31T12:48:24;3.72;;;1.80;;
20478;SDS011;10398;52.490;13.434;2023-07-31T12:50:50;5.10;;;2.38;;
20478;SDS011;10398;52.490;13.434;2023-07-31T12:53:16;4.13;;;2.30;;
20478;SDS011;10398;52.490;13.434;2023-07-31T12:55:41;5.30;;;2.15;;
20478;SDS011;10398;52.490;13.434;2023-07-31T12:58:07;3.33;;;1.50;;
20478;SDS011;10398;52.490;13.434;2023-07-31T13:00:33;3.28;;;1.52;;
20478;SDS011;10398;52.490;13.434;2023-07-31T13:02:59;4.25;;;1.65;;
20478;SDS011;10398;52.490;13.434;2023-07-31T13:05:25;3.45;;;1.55;;
20478;SDS011;10398;52.490;13.434;2023-07-31T13:07:51;4.30;;;1.17;;
20478;SDS011;10398;52.490;13.434;2023-07-31T13:10:17;2.08;;;1.15;;
20478;SDS011;10398;52.490;13.434;2023-07-31T13:12:43;3.72;;;1.58;;
20478;SDS011;10398;52.490;13.434;2023-07-31T13:15:09;1.75;;;1.00;;
20478;SDS011;10398;52.490;13.434;2023-07-31T13:17:35;3.60;;;1.48;;
20478;SDS011;10398;52.490;13.434;2023-07-31T13:20:01;4.70;;;1.63;;
20478;SDS011;10398;52.490;13.434;2023-07-31T13:22:27;9.60;;;1.70;;
20478;SDS011;10398;52.490;13.434;2023-07-31T13:24:52;2.33;;;1.58;;
20478;SDS011;10398;52.490;13.434;2023-07-31T13:27:18;8.32;;;2.40;;
20478;SDS011;10398;52.490;13.434;2023-07-31T13:29:47;7.05;;;2.72;;
20478;SDS011;10398;52.490;13.434;2023-07-31T13:32:16;5.10;;;2.13;;
20478;SDS011;10398;52.490;13.434;2023-07-31T13:34:42;7.70;;;2.47;;
20478;SDS011;10398;52.490;13.434;2023-07-31T13:37:08;8.57;;;2.00;;
20478;SDS011;10398;52.490;13.434;2023-07-31T13:39:34;7.10;;;2.83;;
20478;SDS011;10398;52.490;13.434;2023-07-31T13:42:00;4.55;;;2.13;;
20478;SDS011;10398;52.490;13.434;2023-07-31T13:44:27;5.68;;;2.30;;
20478;SDS011;10398;52.490;13.434;2023-07-31T13:46:53;4.70;;;2.00;;
20478;SDS011;10398;52.490;13.434;2023-07-31T13:49:19;5.40;;;1.77;;
20478;SDS011;10398;52.490;13.434;2023-07-31T13:51:45;4.20;;;1.90;;
20478;SDS011;10398;52.490;13.434;2023-07-31T13:54:11;5.72;;;1.85;;
20478;SDS011;10398;52.490;13.434;2023-07-31T13:56:37;7.15;;;2.30;;
20478;SDS011;10398;52.490;13.434;2023-07-31T13:59:03;5.50;;;2.20;;
20478;SDS011;10398;52.490;13.434;2023-07-31T14:01:28;5.80;;;2.63;;
20478;SDS011;10398;52.490;13.434;2023-07-31T14:03:54;4.80;;;2.08;;
20478;SDS011;10398;52.490;13.434;2023-07-31T14:06:20;4.00;;;1.85;;
20478;SDS011;10398;52.490;13.434;2023-07-31T14:08:46;5.57;;;1.80;;
20478;SDS011;10398;52.490;13.434;2023-07-31T14:11:12;6.35;;;1.80;;
20478;SDS011;10398;52.490;13.434;2023-07-31T14:13:37;5.00;;;2.00;;
20478;SDS011;10398;52.490;13.434;2023-07-31T14:16:03;5.53;;;2.20;;
20478;SDS011;10398;52.490;13.434;2023-07-31T14:18:29;6.80;;;2.10;;
20478;SDS011;10398;52.490;13.434;2023-07-31T14:20:54;4.13;;;2.20;;
20478;SDS011;10398;52.490;13.434;2023-07-31T14:23:20;5.93;;;1.77;;
20478;SDS011;10398;52.490;13.434;2023-07-31T14:25:46;5.18;;;1.98;;
20478;SDS011;10398;52.490;13.434;2023-07-31T14:28:12;9.63;;;2.65;;
20478;SDS011;10398;52.490;13.434;2023-07-31T14:30:38;7.78;;;2.47;;
20478;SDS011;10398;52.490;13.434;2023-07-31T14:33:03;10.02;;;2.67;;
20478;SDS011;10398;52.490;13.434;2023-07-31T14:35:29;9.32;;;3.00;;
20478;SDS011;10398;52.490;13.434;2023-07-31T14:37:55;5.60;;;2.35;;
20478;SDS011;10398;52.490;13.434;2023-07-31T14:40:21;7.82;;;2.65;;
20478;SDS011;10398;52.490;13.434;2023-07-31T14:42:46;7.72;;;2.30;;
20478;SDS011;10398;52.490;13.434;2023-07-31T14:45:12;4.35;;;1.88;;
20478;SDS011;10398;52.490;13.434;2023-07-31T14:47:38;5.18;;;1.92;;
20478;SDS011;10398;52.490;13.434;2023-07-31T14:50:04;4.38;;;2.08;;
20478;SDS011;10398;52.490;13.434;2023-07-31T14:52:30;5.00;;;2.10;;
20478;SDS011;10398;52.490;13.434;2023-07-31T14:54:55;4.07;;;2.17;;